Terminal Aerodrome Forecast
Issued by NWS

Home | Current Version | Previous Version | Text Only | Print | Product List | Glossary On
Versions: 1 2 3 4 5 6 7 8 9 10 11 12 13 14 15 16 17 18
000
FTUS44 KHGX 280520
TAFLBX
TAF
KLBX 280520Z 2806/2906 17007KT P6SM SKC
     FM280900 VRB03KT P6SM SCT020 BKN250
     FM281300 18005KT P6SM VCSH SCT020 BKN035
     FM281700 16008KT P6SM VCTS BKN050CB
     FM282200 15005KT P6SM BKN050 BKN150
     FM290100 VRB04KT P6SM BKN250=

USA.gov is the U.S. government's official web portal to all federal, state and local government web resources and services.